Time;durP1;ratioP1;P1;durP2;ratioP2;P2;SDS_P1;SDS_P2;PMS_P1;PMS_P2;Temp;Humidity;BMP_temperature;BMP_pressure;BME280_temperature;BME280_humidity;BME280_pressure;Samples;Min_cycle;Max_cycle;Signal;HPM_P1;HPM_P2
2021/10/07 00:02:15;;;;;;;0.10;0.10;;;;;;;;;;5110332;28;20024;-65
2021/10/07 00:04:41;;;;;;;0.00;0.00;;;;;;;;;;5112181;28;20034;-65
2021/10/07 00:07:07;;;;;;;0.10;0.10;;;;;;;;;;5109097;28;20470;-64
2021/10/07 00:09:33;;;;;;;0.15;0.10;;;;;;;;;;5108761;28;20023;-65
2021/10/07 00:12:00;;;;;;;0.28;0.10;;;;;;;;;;5109865;28;20440;-64
2021/10/07 00:14:26;;;;;;;1.27;0.10;;;;;;;;;;5109332;28;20498;-64
2021/10/07 00:16:52;;;;;;;0.75;0.20;;;;;;;;;;5112798;28;20437;-64
2021/10/07 00:19:18;;;;;;;0.20;0.10;;;;;;;;;;5109482;28;20077;-64
2021/10/07 00:21:44;;;;;;;2.38;0.10;;;;;;;;;;5109231;28;20031;-64
2021/10/07 00:24:11;;;;;;;0.45;0.15;;;;;;;;;;5109398;28;20050;-64
2021/10/07 00:26:47;;;;;;;0.80;0.10;;;;;;;;;;5109370;28;20110;-64
2021/10/07 00:32:07;;;;;;;0.30;0.10;;;;;;;;;;5108448;28;20062;-65
2021/10/07 00:40:04;;;;;;;0.08;0.08;;;;;;;;;;5105939;28;20046;-65
2021/10/07 00:42:30;;;;;;;0.57;0.20;;;;;;;;;;5108177;28;20024;-64
2021/10/07 00:44:56;;;;;;;1.05;0.30;;;;;;;;;;5107922;28;20039;-64
2021/10/07 00:47:22;;;;;;;1.17;0.30;;;;;;;;;;5107638;28;20072;-65
2021/10/07 00:49:48;;;;;;;0.93;0.30;;;;;;;;;;5110474;28;20024;-65
2021/10/07 00:52:18;;;;;;;4.10;0.40;;;;;;;;;;5108182;28;20024;-66
2021/10/07 00:54:55;;;;;;;1.45;0.30;;;;;;;;;;5107532;28;20043;-65
2021/10/07 00:57:22;;;;;;;1.00;0.20;;;;;;;;;;5107677;28;20035;-65
2021/10/07 00:59:48;;;;;;;0.20;0.15;;;;;;;;;;5107955;28;20474;-65
2021/10/07 01:02:14;;;;;;;0.28;0.28;;;;;;;;;;5109259;28;20585;-65
2021/10/07 01:04:40;;;;;;;0.68;0.13;;;;;;;;;;5109978;28;20035;-65
2021/10/07 01:07:07;;;;;;;0.47;0.20;;;;;;;;;;5107209;28;20398;-65
2021/10/07 01:09:33;;;;;;;0.98;0.10;;;;;;;;;;5101506;28;20051;-65
2021/10/07 01:12:00;;;;;;;0.77;0.15;;;;;;;;;;5101680;28;20085;-65
2021/10/07 01:14:33;;;;;;;1.95;0.40;;;;;;;;;;5107742;28;20395;-65
2021/10/07 01:17:00;;;;;;;1.08;0.20;;;;;;;;;;5108996;28;20020;-65
2021/10/07 01:19:27;;;;;;;0.63;0.20;;;;;;;;;;5110223;28;20027;-65
2021/10/07 01:21:53;;;;;;;0.40;0.20;;;;;;;;;;5107533;28;20108;-64
2021/10/07 01:24:19;;;;;;;3.33;0.40;;;;;;;;;;5107917;28;20563;-65
2021/10/07 01:26:45;;;;;;;3.38;0.40;;;;;;;;;;5107595;28;20463;-64
2021/10/07 01:29:11;;;;;;;0.30;0.20;;;;;;;;;;5108527;28;20577;-65
2021/10/07 01:31:37;;;;;;;0.55;0.30;;;;;;;;;;5066862;28;1224497;-64
2021/10/07 01:34:03;;;;;;;1.13;0.20;;;;;;;;;;5108347;28;20031;-63
2021/10/07 01:36:29;;;;;;;1.65;0.30;;;;;;;;;;5108270;28;20047;-65
2021/10/07 01:38:55;;;;;;;0.25;0.20;;;;;;;;;;5102505;28;20372;-65
2021/10/07 01:41:21;;;;;;;0.25;0.10;;;;;;;;;;5107695;28;20076;-65
2021/10/07 01:43:47;;;;;;;2.53;0.40;;;;;;;;;;5107581;28;20462;-65
2021/10/07 01:46:13;;;;;;;1.17;0.22;;;;;;;;;;5108210;28;20027;-65
2021/10/07 01:48:39;;;;;;;0.90;0.30;;;;;;;;;;5107706;28;20032;-65
2021/10/07 01:51:05;;;;;;;1.00;0.40;;;;;;;;;;5108113;28;20155;-64
2021/10/07 01:53:31;;;;;;;1.40;0.30;;;;;;;;;;5108457;28;20464;-65
2021/10/07 01:55:57;;;;;;;0.70;0.17;;;;;;;;;;5110539;28;20023;-65
2021/10/07 01:58:25;;;;;;;4.18;0.50;;;;;;;;;;5110416;28;20497;-66
2021/10/07 02:00:51;;;;;;;3.22;0.30;;;;;;;;;;5108044;28;20023;-65
2021/10/07 02:03:17;;;;;;;3.47;0.55;;;;;;;;;;5107715;28;20024;-65
2021/10/07 02:05:43;;;;;;;0.10;0.10;;;;;;;;;;5108202;28;20027;-65
2021/10/07 02:08:09;;;;;;;0.60;0.20;;;;;;;;;;5109388;28;20080;-65
2021/10/07 02:10:35;;;;;;;1.50;0.40;;;;;;;;;;5109390;28;20110;-66
2021/10/07 02:13:01;;;;;;;1.08;0.20;;;;;;;;;;5108221;28;20008;-65
2021/10/07 02:15:27;;;;;;;0.20;0.15;;;;;;;;;;5107542;28;20368;-65
2021/10/07 02:17:53;;;;;;;1.38;0.30;;;;;;;;;;5108128;28;20047;-65
2021/10/07 02:20:19;;;;;;;0.80;0.20;;;;;;;;;;5090572;28;20020;-65
2021/10/07 02:22:45;;;;;;;0.35;0.17;;;;;;;;;;5111422;28;20027;-65
2021/10/07 02:25:12;;;;;;;1.85;0.40;;;;;;;;;;5107267;28;20038;-65
2021/10/07 02:27:38;;;;;;;0.45;0.20;;;;;;;;;;5108046;27;20028;-65
2021/10/07 02:30:06;;;;;;;0.25;0.15;;;;;;;;;;5111560;28;20027;-64
2021/10/07 02:32:32;;;;;;;0.50;0.10;;;;;;;;;;5111117;28;20075;-65
2021/10/07 02:34:58;;;;;;;0.57;0.10;;;;;;;;;;5114399;28;20048;-64
2021/10/07 02:37:23;;;;;;;0.70;0.20;;;;;;;;;;5113735;28;20015;-64
2021/10/07 02:39:49;;;;;;;0.20;0.10;;;;;;;;;;5110896;28;20031;-65
2021/10/07 02:42:15;;;;;;;0.43;0.22;;;;;;;;;;5110960;28;20100;-64
2021/10/07 02:44:41;;;;;;;1.95;0.20;;;;;;;;;;5104990;28;20032;-65
2021/10/07 02:47:07;;;;;;;1.35;0.15;;;;;;;;;;5112918;28;20161;-64
2021/10/07 02:49:33;;;;;;;0.17;0.17;;;;;;;;;;5112388;28;20038;-64
2021/10/07 02:51:59;;;;;;;0.80;0.32;;;;;;;;;;5103809;28;20020;-65
2021/10/07 02:54:25;;;;;;;0.43;0.20;;;;;;;;;;5103254;28;20034;-65
2021/10/07 02:56:52;;;;;;;0.35;0.20;;;;;;;;;;5111305;28;20107;-64
2021/10/07 02:59:18;;;;;;;0.10;0.10;;;;;;;;;;5111326;28;20024;-64
2021/10/07 03:01:44;;;;;;;0.35;0.10;;;;;;;;;;5113872;28;20084;-65
2021/10/07 03:04:10;;;;;;;0.75;0.20;;;;;;;;;;5110662;28;20032;-64
2021/10/07 03:06:36;;;;;;;0.68;0.22;;;;;;;;;;5111123;28;20102;-64
2021/10/07 03:09:02;;;;;;;0.52;0.30;;;;;;;;;;5110590;28;20122;-64
2021/10/07 03:11:28;;;;;;;0.82;0.20;;;;;;;;;;5110195;28;20035;-64
2021/10/07 03:13:54;;;;;;;0.55;0.10;;;;;;;;;;5103196;28;20024;-65
2021/10/07 03:16:20;;;;;;;0.30;0.10;;;;;;;;;;5111637;28;20024;-65
2021/10/07 03:18:46;;;;;;;0.65;0.20;;;;;;;;;;5109319;28;20130;-65
2021/10/07 03:21:12;;;;;;;0.35;0.10;;;;;;;;;;5110594;28;20027;-65
2021/10/07 03:23:38;;;;;;;0.30;0.10;;;;;;;;;;5109734;28;20115;-65
2021/10/07 03:26:04;;;;;;;0.90;0.30;;;;;;;;;;5113012;28;20019;-65
2021/10/07 03:28:30;;;;;;;0.08;0.08;;;;;;;;;;5111423;28;20032;-65
2021/10/07 03:30:56;;;;;;;2.45;0.20;;;;;;;;;;5110209;28;20046;-65
2021/10/07 03:33:22;;;;;;;0.75;0.10;;;;;;;;;;5110055;28;20047;-65
2021/10/07 03:35:49;;;;;;;0.43;0.28;;;;;;;;;;5109614;28;20501;-64
2021/10/07 03:38:15;;;;;;;2.22;0.20;;;;;;;;;;5111010;28;20483;-65
2021/10/07 03:40:41;;;;;;;0.90;0.40;;;;;;;;;;5111873;28;20028;-65
2021/10/07 03:43:07;;;;;;;0.17;0.10;;;;;;;;;;5110063;28;20394;-63
2021/10/07 03:45:33;;;;;;;0.75;0.22;;;;;;;;;;5110116;28;20027;-65
2021/10/07 03:47:59;;;;;;;1.05;0.20;;;;;;;;;;5109642;28;20046;-65
2021/10/07 03:50:25;;;;;;;0.30;0.20;;;;;;;;;;5109554;28;20095;-65
2021/10/07 03:52:51;;;;;;;0.17;0.10;;;;;;;;;;5113154;28;20062;-65
2021/10/07 03:55:17;;;;;;;0.70;0.20;;;;;;;;;;5110274;28;20023;-65
2021/10/07 03:57:43;;;;;;;0.20;0.10;;;;;;;;;;5109805;28;20027;-65
2021/10/07 04:00:09;;;;;;;1.95;0.43;;;;;;;;;;5109230;28;20043;-65
2021/10/07 04:02:35;;;;;;;0.70;0.10;;;;;;;;;;5109141;28;20065;-65
2021/10/07 04:05:01;;;;;;;3.33;0.10;;;;;;;;;;5112217;28;20027;-64
2021/10/07 04:07:27;;;;;;;0.77;0.05;;;;;;;;;;5110476;28;20032;-65
2021/10/07 04:09:53;;;;;;;0.03;0.00;;;;;;;;;;5109343;28;20471;-65
2021/10/07 04:12:19;;;;;;;0.55;0.00;;;;;;;;;;5109250;28;20031;-65
2021/10/07 04:14:45;;;;;;;0.40;0.10;;;;;;;;;;5109216;28;20027;-65
2021/10/07 04:17:11;;;;;;;0.25;0.10;;;;;;;;;;5111294;28;20040;-64
2021/10/07 04:19:37;;;;;;;0.28;0.20;;;;;;;;;;5111699;28;20493;-65
2021/10/07 04:22:04;;;;;;;0.82;0.10;;;;;;;;;;5108664;28;20383;-64
2021/10/07 04:24:30;;;;;;;0.22;0.10;;;;;;;;;;5109538;28;20063;-64
2021/10/07 04:26:56;;;;;;;1.45;0.10;;;;;;;;;;5109396;28;20107;-64
2021/10/07 04:29:22;;;;;;;0.00;0.00;;;;;;;;;;5108792;28;20028;-64
2021/10/07 04:31:48;;;;;;;0.00;0.00;;;;;;;;;;5108233;28;20544;-64
2021/10/07 04:34:14;;;;;;;0.00;0.00;;;;;;;;;;5108624;28;20501;-64
2021/10/07 04:36:41;;;;;;;0.10;0.10;;;;;;;;;;5108914;28;20037;-64
2021/10/07 04:39:07;;;;;;;1.30;0.13;;;;;;;;;;5108559;28;20024;-64
2021/10/07 04:41:33;;;;;;;0.05;0.05;;;;;;;;;;5109270;28;20036;-64
2021/10/07 04:43:59;;;;;;;1.48;0.10;;;;;;;;;;5111320;28;20035;-65
2021/10/07 04:46:25;;;;;;;0.20;0.10;;;;;;;;;;5110214;28;20496;-65
2021/10/07 04:48:54;;;;;;;0.28;0.20;;;;;;;;;;5108503;28;20089;-65
2021/10/07 04:51:19;;;;;;;;;;;;;;;;;;5108810;28;20019;-63
2021/10/07 04:53:45;;;;;;;0.10;0.10;;;;;;;;;;5108189;28;19918;-65
2021/10/07 04:56:11;;;;;;;1.40;0.10;;;;;;;;;;5110207;28;20475;-65
2021/10/07 04:58:37;;;;;;;0.40;0.10;;;;;;;;;;5110832;28;20471;-66
2021/10/07 05:01:03;;;;;;;0.57;0.40;;;;;;;;;;5108432;28;20023;-66
2021/10/07 05:03:30;;;;;;;1.00;0.10;;;;;;;;;;5108413;28;20024;-66
2021/10/07 05:05:56;;;;;;;1.20;0.28;;;;;;;;;;5108659;28;20062;-65
2021/10/07 05:08:22;;;;;;;1.55;0.20;;;;;;;;;;5108807;28;20036;-65
2021/10/07 05:10:48;;;;;;;1.50;0.20;;;;;;;;;;5108028;28;20462;-66
2021/10/07 05:13:14;;;;;;;0.47;0.10;;;;;;;;;;5107711;28;20032;-66
2021/10/07 05:15:40;;;;;;;1.77;0.20;;;;;;;;;;5108617;28;20020;-66
2021/10/07 05:18:06;;;;;;;0.73;0.20;;;;;;;;;;5108104;28;20379;-68
2021/10/07 05:20:32;;;;;;;0.20;0.20;;;;;;;;;;5107835;28;20031;-68
2021/10/07 05:22:58;;;;;;;0.88;0.25;;;;;;;;;;5110076;28;20028;-65
2021/10/07 05:25:24;;;;;;;1.45;0.30;;;;;;;;;;5109573;28;20110;-66
2021/10/07 05:27:50;;;;;;;0.40;0.20;;;;;;;;;;5108402;28;20482;-66
2021/10/07 05:30:16;;;;;;;0.82;0.20;;;;;;;;;;5107893;28;20040;-65
2021/10/07 05:32:42;;;;;;;2.40;0.65;;;;;;;;;;5108338;28;20507;-66
2021/10/07 05:35:08;;;;;;;1.15;0.30;;;;;;;;;;5109749;28;20035;-65
2021/10/07 05:37:34;;;;;;;0.50;0.30;;;;;;;;;;5109976;28;20094;-67
2021/10/07 05:40:00;;;;;;;0.57;0.30;;;;;;;;;;5108234;28;20202;-67
2021/10/07 05:42:26;;;;;;;0.65;0.45;;;;;;;;;;5108030;28;20023;-66
2021/10/07 05:44:52;;;;;;;5.35;0.40;;;;;;;;;;5100859;28;20034;-67
2021/10/07 05:47:18;;;;;;;0.52;0.30;;;;;;;;;;5105323;28;20055;-66
2021/10/07 05:49:44;;;;;;;0.57;0.28;;;;;;;;;;5111309;28;20059;-65
2021/10/07 05:52:10;;;;;;;0.73;0.30;;;;;;;;;;5105314;28;20023;-65
2021/10/07 05:54:36;;;;;;;1.92;0.40;;;;;;;;;;5101825;28;20077;-67
2021/10/07 05:57:04;;;;;;;0.47;0.45;;;;;;;;;;5100077;28;20099;-65
2021/10/07 05:59:30;;;;;;;0.40;0.20;;;;;;;;;;5100878;28;20546;-65
2021/10/07 06:01:58;;;;;;;0.70;0.20;;;;;;;;;;5100987;28;20107;-67
2021/10/07 06:04:24;;;;;;;1.55;0.20;;;;;;;;;;5104470;28;20107;-66
2021/10/07 06:06:50;;;;;;;0.82;0.38;;;;;;;;;;5099995;28;20550;-66
2021/10/07 06:09:16;;;;;;;2.88;0.50;;;;;;;;;;5105574;28;20047;-66
2021/10/07 06:11:42;;;;;;;0.98;0.30;;;;;;;;;;5102844;28;20095;-65
2021/10/07 06:14:08;;;;;;;2.20;0.40;;;;;;;;;;5105922;28;20024;-66
2021/10/07 06:16:39;;;;;;;0.70;0.40;;;;;;;;;;5106029;28;20020;-66
2021/10/07 06:19:07;;;;;;;0.70;0.30;;;;;;;;;;5102511;28;20035;-66
2021/10/07 06:21:33;;;;;;;4.80;0.47;;;;;;;;;;5105044;28;20016;-66
2021/10/07 06:23:59;;;;;;;1.77;0.20;;;;;;;;;;5104840;28;20027;-66
2021/10/07 06:26:26;;;;;;;1.23;0.40;;;;;;;;;;5103762;28;20080;-66
2021/10/07 06:28:52;;;;;;;2.00;0.50;;;;;;;;;;5107119;28;20494;-65
2021/10/07 06:31:18;;;;;;;1.83;0.40;;;;;;;;;;5103718;28;20040;-66
2021/10/07 06:33:44;;;;;;;0.22;0.20;;;;;;;;;;5108499;28;20058;-66
2021/10/07 06:36:10;;;;;;;0.47;0.30;;;;;;;;;;5107172;28;20020;-66
2021/10/07 06:38:36;;;;;;;0.55;0.28;;;;;;;;;;5104247;28;20158;-65
2021/10/07 06:41:02;;;;;;;0.20;0.20;;;;;;;;;;5113666;28;20065;-65
2021/10/07 06:43:28;;;;;;;1.23;0.30;;;;;;;;;;5111980;28;20516;-66
2021/10/07 06:45:54;;;;;;;0.52;0.20;;;;;;;;;;5111299;28;20134;-66
2021/10/07 06:48:20;;;;;;;0.20;0.20;;;;;;;;;;5110530;28;20127;-66
2021/10/07 06:50:46;;;;;;;0.55;0.38;;;;;;;;;;5111520;28;20099;-66
2021/10/07 06:53:13;;;;;;;1.10;0.35;;;;;;;;;;5112824;28;20194;-66
2021/10/07 06:55:39;;;;;;;0.50;0.30;;;;;;;;;;5112698;28;20016;-66
2021/10/07 06:58:06;;;;;;;0.10;0.10;;;;;;;;;;5110664;28;20027;-66
2021/10/07 07:00:32;;;;;;;0.10;0.10;;;;;;;;;;5110990;28;20020;-65
2021/10/07 07:02:58;;;;;;;0.50;0.15;;;;;;;;;;5111255;28;20027;-68
2021/10/07 07:05:25;;;;;;;0.20;0.20;;;;;;;;;;5112635;28;20054;-68
2021/10/07 07:07:51;;;;;;;2.47;0.30;;;;;;;;;;5102830;28;20071;-68
2021/10/07 07:10:17;;;;;;;0.10;0.10;;;;;;;;;;5105294;28;20434;-68
2021/10/07 07:12:47;;;;;;;0.30;0.20;;;;;;;;;;5107700;28;20111;-69
2021/10/07 07:15:13;;;;;;;0.57;0.10;;;;;;;;;;5106752;28;20463;-68
2021/10/07 07:17:39;;;;;;;0.00;0.00;;;;;;;;;;5101334;28;20055;-68
2021/10/07 07:20:05;;;;;;;0.30;0.10;;;;;;;;;;5102109;28;20026;-68
2021/10/07 07:22:31;;;;;;;0.30;0.10;;;;;;;;;;5105252;28;20020;-68
2021/10/07 07:24:57;;;;;;;0.30;0.13;;;;;;;;;;5107068;28;20035;-68
2021/10/07 07:27:23;;;;;;;0.10;0.10;;;;;;;;;;5105939;28;20027;-68
2021/10/07 07:29:50;;;;;;;0.77;0.15;;;;;;;;;;5104345;28;20036;-68
2021/10/07 07:32:16;;;;;;;0.32;0.20;;;;;;;;;;5105959;28;20048;-68
2021/10/07 07:34:42;;;;;;;0.65;0.20;;;;;;;;;;5106410;28;20027;-68
2021/10/07 07:37:08;;;;;;;0.88;0.10;;;;;;;;;;5105250;28;20048;-68
2021/10/07 07:39:34;;;;;;;0.55;0.17;;;;;;;;;;5106995;27;21033;-69
2021/10/07 07:42:00;;;;;;;0.20;0.10;;;;;;;;;;5101853;28;20024;-68
2021/10/07 07:44:26;;;;;;;0.20;0.10;;;;;;;;;;5104250;28;20383;-68
2021/10/07 07:46:53;;;;;;;0.38;0.10;;;;;;;;;;5102123;28;20467;-68
2021/10/07 07:49:19;;;;;;;0.10;0.10;;;;;;;;;;5102977;28;20036;-69
2021/10/07 07:51:45;;;;;;;0.00;0.00;;;;;;;;;;5103272;28;20038;-68
2021/10/07 07:54:11;;;;;;;0.25;0.10;;;;;;;;;;5106913;28;20028;-68
2021/10/07 07:56:37;;;;;;;0.13;0.13;;;;;;;;;;5109305;28;20493;-68
2021/10/07 07:59:03;;;;;;;0.10;0.10;;;;;;;;;;5102036;28;20067;-68
2021/10/07 08:01:31;;;;;;;0.00;0.00;;;;;;;;;;5102031;28;20150;-68
2021/10/07 08:03:57;;;;;;;0.10;0.10;;;;;;;;;;5104169;28;20027;-68
2021/10/07 08:06:22;;;;;;;0.10;0.10;;;;;;;;;;5104256;28;20107;-68
2021/10/07 08:08:48;;;;;;;0.10;0.10;;;;;;;;;;5103594;28;20450;-68
2021/10/07 08:11:14;;;;;;;3.03;0.40;;;;;;;;;;5105191;28;20066;-68
2021/10/07 08:13:40;;;;;;;1.55;0.30;;;;;;;;;;5104139;28;20016;-68
2021/10/07 08:16:06;;;;;;;0.45;0.22;;;;;;;;;;5107767;28;20055;-68
2021/10/07 08:18:32;;;;;;;0.30;0.15;;;;;;;;;;5109228;28;20123;-68
2021/10/07 08:20:58;;;;;;;0.10;0.10;;;;;;;;;;5107290;28;20106;-68
2021/10/07 08:23:28;;;;;;;0.00;0.00;;;;;;;;;;5109305;28;20027;-68
2021/10/07 08:25:55;;;;;;;0.10;0.10;;;;;;;;;;5111865;28;20034;-67
2021/10/07 08:28:22;;;;;;;0.30;0.15;;;;;;;;;;5109351;28;20529;-68
2021/10/07 08:30:48;;;;;;;0.10;0.10;;;;;;;;;;5109175;28;20031;-68
2021/10/07 08:33:14;;;;;;;0.17;0.10;;;;;;;;;;5108713;28;20027;-68
2021/10/07 08:35:40;;;;;;;0.10;0.10;;;;;;;;;;5108860;28;20069;-68
2021/10/07 08:38:08;;;;;;;0.22;0.00;;;;;;;;;;5110938;28;20150;-68
2021/10/07 08:40:34;;;;;;;0.00;0.00;;;;;;;;;;5110312;28;20463;-68
2021/10/07 08:43:00;;;;;;;0.20;0.10;;;;;;;;;;5102175;28;20027;-68
2021/10/07 08:45:28;;;;;;;0.03;0.03;;;;;;;;;;5101714;28;20028;-68
2021/10/07 08:47:55;;;;;;;0.00;0.00;;;;;;;;;;5101937;28;20074;-67
2021/10/07 08:50:21;;;;;;;0.00;0.00;;;;;;;;;;5102944;28;20027;-68
2021/10/07 08:52:48;;;;;;;1.10;0.13;;;;;;;;;;5110856;28;20076;-67
2021/10/07 08:55:14;;;;;;;0.10;0.10;;;;;;;;;;5108889;28;20020;-68
2021/10/07 08:57:40;;;;;;;0.10;0.10;;;;;;;;;;5107813;28;20098;-67
2021/10/07 09:00:08;;;;;;;0.10;0.10;;;;;;;;;;5108373;28;20104;-68
2021/10/07 09:02:34;;;;;;;;;;;;;;;;;;5106547;28;20019;-67
2021/10/07 09:05:07;;;;;;;0.10;0.10;;;;;;;;;;5103819;28;19910;-69
2021/10/07 09:07:33;;;;;;;0.10;0.10;;;;;;;;;;5103254;28;20024;-68
2021/10/07 09:09:59;;;;;;;0.10;0.10;;;;;;;;;;5105196;28;20387;-67
2021/10/07 09:12:26;;;;;;;0.52;0.13;;;;;;;;;;5104584;28;20047;-68
2021/10/07 09:14:52;;;;;;;0.35;0.10;;;;;;;;;;5107091;28;20028;-69
2021/10/07 09:17:19;;;;;;;1.00;0.10;;;;;;;;;;5109323;28;20103;-69
2021/10/07 09:19:47;;;;;;;0.10;0.10;;;;;;;;;;5112204;28;20024;-69
2021/10/07 09:22:15;;;;;;;0.10;0.10;;;;;;;;;;5108289;28;20031;-69
2021/10/07 09:24:46;;;;;;;0.28;0.10;;;;;;;;;;5101722;28;20479;-69
2021/10/07 09:27:20;;;;;;;0.52;0.17;;;;;;;;;;5097274;28;20543;-69
2021/10/07 09:29:56;;;;;;;0.28;0.20;;;;;;;;;;5101017;28;20085;-68
2021/10/07 09:32:25;;;;;;;0.32;0.10;;;;;;;;;;5101919;28;20082;-68
2021/10/07 09:34:51;;;;;;;0.30;0.10;;;;;;;;;;5101852;28;20111;-69
2021/10/07 09:37:18;;;;;;;0.70;0.17;;;;;;;;;;5104477;28;20037;-69
2021/10/07 09:39:48;;;;;;;0.30;0.10;;;;;;;;;;5106751;28;20502;-67
2021/10/07 09:42:22;;;;;;;0.65;0.10;;;;;;;;;;5108975;28;20107;-68
2021/10/07 09:45:03;;;;;;;1.98;0.17;;;;;;;;;;5111288;28;20111;-68
2021/10/07 09:47:30;;;;;;;0.45;0.20;;;;;;;;;;5105805;28;20047;-69
2021/10/07 09:50:12;;;;;;;0.00;0.00;;;;;;;;;;5108459;28;20487;-68
2021/10/07 09:52:39;;;;;;;0.20;0.13;;;;;;;;;;5106483;28;20731;-69
2021/10/07 09:55:08;;;;;;;0.08;0.05;;;;;;;;;;5105769;28;20459;-69
2021/10/07 09:57:34;;;;;;;0.22;0.08;;;;;;;;;;5105412;28;20465;-69
2021/10/07 10:00:02;;;;;;;0.05;0.00;;;;;;;;;;5103737;28;20027;-68
2021/10/07 10:02:28;;;;;;;;;;;;;;;;;;5108280;28;20031;-67
2021/10/07 10:04:54;;;;;;;0.45;0.10;;;;;;;;;;5115527;28;19904;-67
2021/10/07 10:07:21;;;;;;;0.35;0.15;;;;;;;;;;5112209;28;20019;-69
2021/10/07 10:09:47;;;;;;;0.20;0.10;;;;;;;;;;5111958;28;20051;-68
2021/10/07 10:12:13;;;;;;;0.40;0.20;;;;;;;;;;5111925;28;20080;-69
2021/10/07 10:14:40;;;;;;;0.10;0.10;;;;;;;;;;5112331;28;20028;-69
2021/10/07 10:17:09;;;;;;;0.10;0.10;;;;;;;;;;5114526;28;20046;-68
2021/10/07 10:19:35;;;;;;;0.82;0.20;;;;;;;;;;5113310;28;20619;-68
2021/10/07 10:22:01;;;;;;;0.73;0.10;;;;;;;;;;5104325;28;20372;-70
2021/10/07 10:24:27;;;;;;;0.05;0.05;;;;;;;;;;5106254;28;20027;-68
2021/10/07 10:27:04;;;;;;;0.20;0.10;;;;;;;;;;5105179;28;20039;-69
2021/10/07 10:29:33;;;;;;;0.10;0.10;;;;;;;;;;5103934;28;20516;-70
2021/10/07 10:32:00;;;;;;;0.50;0.20;;;;;;;;;;5100347;28;20043;-67
2021/10/07 10:34:26;;;;;;;0.82;0.20;;;;;;;;;;5106303;28;20539;-69
2021/10/07 10:36:53;;;;;;;0.10;0.10;;;;;;;;;;5106816;28;20120;-67
2021/10/07 10:39:19;;;;;;;0.47;0.20;;;;;;;;;;5104490;28;20042;-66
2021/10/07 10:41:56;;;;;;;0.00;0.00;;;;;;;;;;5104392;28;20012;-71
2021/10/07 10:44:28;;;;;;;0.05;0.05;;;;;;;;;;5104187;28;20382;-70
2021/10/07 10:47:01;;;;;;;0.63;0.10;;;;;;;;;;5107249;28;20059;-69
2021/10/07 10:49:39;;;;;;;1.02;0.17;;;;;;;;;;5105883;28;20387;-70
2021/10/07 10:52:16;;;;;;;0.35;0.10;;;;;;;;;;5105469;28;20091;-70
2021/10/07 10:54:45;;;;;;;0.10;0.10;;;;;;;;;;5106732;28;20102;-69
2021/10/07 10:57:30;;;;;;;1.25;0.28;;;;;;;;;;5107979;28;20471;-68
2021/10/07 11:00:16;;;;;;;0.32;0.20;;;;;;;;;;5111088;28;20503;-68
2021/10/07 11:02:44;;;;;;;0.55;0.25;;;;;;;;;;5110829;28;20026;-68
2021/10/07 11:05:14;;;;;;;0.10;0.10;;;;;;;;;;5112511;28;20024;-68
2021/10/07 11:07:40;;;;;;;0.90;0.40;;;;;;;;;;5113192;28;20027;-68
2021/10/07 11:10:06;;;;;;;0.25;0.10;;;;;;;;;;5110436;28;20111;-68
2021/10/07 11:12:34;;;;;;;0.82;0.10;;;;;;;;;;5110591;28;20027;-66
2021/10/07 11:15:00;;;;;;;0.10;0.10;;;;;;;;;;5110909;28;20030;-66
2021/10/07 11:17:29;;;;;;;0.10;0.10;;;;;;;;;;5110997;28;20028;-66
2021/10/07 11:19:55;;;;;;;0.10;0.10;;;;;;;;;;5110271;28;20050;-69
2021/10/07 11:22:23;;;;;;;0.10;0.10;;;;;;;;;;5104846;28;20020;-69
2021/10/07 11:24:53;;;;;;;0.10;0.10;;;;;;;;;;5108024;28;20517;-69
2021/10/07 11:27:32;;;;;;;0.10;0.10;;;;;;;;;;5110041;28;20782;-68
2021/10/07 11:29:58;;;;;;;1.17;0.15;;;;;;;;;;5110407;28;20031;-69
2021/10/07 11:32:24;;;;;;;0.10;0.10;;;;;;;;;;5110550;28;20110;-69
2021/10/07 11:34:59;;;;;;;0.20;0.03;;;;;;;;;;5113793;28;20111;-68
2021/10/07 11:37:26;;;;;;;0.10;0.10;;;;;;;;;;5112261;28;20024;-68
2021/10/07 11:40:11;;;;;;;0.00;0.00;;;;;;;;;;5110433;28;20028;-68
2021/10/07 11:42:40;;;;;;;0.25;0.10;;;;;;;;;;5109808;28;20073;-68
2021/10/07 11:45:20;;;;;;;1.73;0.10;;;;;;;;;;5110272;28;20035;-68
2021/10/07 11:47:46;;;;;;;0.20;0.10;;;;;;;;;;5109798;28;20391;-66
2021/10/07 11:50:12;;;;;;;0.10;0.10;;;;;;;;;;5111175;28;20019;-68
2021/10/07 11:52:38;;;;;;;2.35;0.30;;;;;;;;;;5110655;28;20028;-68
2021/10/07 11:55:04;;;;;;;0.20;0.20;;;;;;;;;;5109901;28;20028;-67
2021/10/07 11:57:30;;;;;;;0.28;0.22;;;;;;;;;;5110160;28;20028;-68
2021/10/07 11:59:56;;;;;;;0.55;0.17;;;;;;;;;;5109378;28;20069;-68
2021/10/07 12:02:23;;;;;;;0.38;0.28;;;;;;;;;;5108223;28;20032;-66
2021/10/07 12:04:49;;;;;;;0.68;0.47;;;;;;;;;;5108893;28;20040;-68
2021/10/07 12:07:15;;;;;;;1.30;0.15;;;;;;;;;;5109644;28;20063;-68
2021/10/07 12:09:41;;;;;;;0.20;0.15;;;;;;;;;;5109774;28;20138;-68
2021/10/07 12:12:07;;;;;;;0.40;0.30;;;;;;;;;;5109812;28;20038;-68
2021/10/07 12:14:33;;;;;;;0.68;0.20;;;;;;;;;;5109429;28;20430;-68
2021/10/07 12:16:59;;;;;;;0.82;0.30;;;;;;;;;;5111931;28;20027;-68
2021/10/07 12:19:27;;;;;;;0.10;0.10;;;;;;;;;;5110553;28;20023;-68
2021/10/07 12:21:59;;;;;;;0.03;0.03;;;;;;;;;;5109269;28;20031;-67
2021/10/07 12:24:26;;;;;;;1.10;0.20;;;;;;;;;;5109411;28;20031;-68
2021/10/07 12:26:53;;;;;;;0.08;0.08;;;;;;;;;;5109464;28;20058;-67
2021/10/07 12:29:21;;;;;;;0.82;0.20;;;;;;;;;;5109364;28;20502;-67
2021/10/07 12:31:56;;;;;;;0.10;0.10;;;;;;;;;;5112377;28;20052;-67
2021/10/07 12:34:25;;;;;;;0.20;0.10;;;;;;;;;;5110031;28;20024;-68
2021/10/07 12:36:52;;;;;;;0.22;0.20;;;;;;;;;;5109377;28;20031;-68
2021/10/07 12:39:22;;;;;;;0.13;0.10;;;;;;;;;;5108564;28;20020;-67
2021/10/07 12:41:49;;;;;;;1.65;0.20;;;;;;;;;;5104705;28;20508;-67
2021/10/07 12:44:23;;;;;;;0.43;0.20;;;;;;;;;;5109540;28;20407;-67
2021/10/07 12:46:50;;;;;;;2.38;0.17;;;;;;;;;;5108557;28;20371;-68
2021/10/07 12:49:17;;;;;;;0.00;0.00;;;;;;;;;;5108360;28;20043;-68
2021/10/07 12:51:44;;;;;;;0.20;0.20;;;;;;;;;;5109020;28;20028;-68
2021/10/07 12:54:12;;;;;;;0.20;0.10;;;;;;;;;;5108728;28;20023;-68
2021/10/07 12:56:40;;;;;;;1.98;0.38;;;;;;;;;;5108876;28;20031;-68
2021/10/07 12:59:07;;;;;;;2.15;0.15;;;;;;;;;;5111410;28;20512;-68
2021/10/07 13:01:38;;;;;;;0.35;0.20;;;;;;;;;;5110248;28;20035;-68
2021/10/07 13:04:24;;;;;;;0.55;0.10;;;;;;;;;;5108655;28;20020;-68
2021/10/07 13:06:51;;;;;;;4.45;0.15;;;;;;;;;;5108253;28;20032;-68
2021/10/07 13:09:17;;;;;;;0.00;0.00;;;;;;;;;;5108449;28;20410;-66
2021/10/07 13:11:43;;;;;;;1.08;0.20;;;;;;;;;;5108795;28;20059;-68
2021/10/07 13:14:10;;;;;;;0.80;0.13;;;;;;;;;;5110828;28;20031;-66
2021/10/07 13:16:36;;;;;;;0.17;0.10;;;;;;;;;;5109870;28;20048;-68
2021/10/07 13:19:02;;;;;;;0.10;0.10;;;;;;;;;;5108156;28;20027;-68
2021/10/07 13:21:28;;;;;;;0.10;0.10;;;;;;;;;;5108794;28;20019;-66
2021/10/07 13:24:01;;;;;;;0.57;0.17;;;;;;;;;;5108857;28;20039;-66
2021/10/07 13:26:33;;;;;;;1.88;0.10;;;;;;;;;;5093080;28;20027;-69
2021/10/07 13:28:59;;;;;;;2.15;0.20;;;;;;;;;;5111120;28;20036;-66
2021/10/07 13:31:25;;;;;;;0.75;0.20;;;;;;;;;;5110367;28;20047;-68
2021/10/07 13:33:51;;;;;;;0.68;0.05;;;;;;;;;;5108438;28;20051;-66
2021/10/07 13:36:17;;;;;;;0.85;0.20;;;;;;;;;;5108199;28;20434;-68
2021/10/07 13:38:44;;;;;;;0.30;0.20;;;;;;;;;;5108345;28;20073;-68
2021/10/07 13:41:10;;;;;;;0.10;0.10;;;;;;;;;;5110250;28;20024;-68
2021/10/07 13:43:38;;;;;;;0.55;0.20;;;;;;;;;;5109111;28;20036;-68
2021/10/07 13:46:05;;;;;;;0.30;0.20;;;;;;;;;;5108343;28;20076;-68
2021/10/07 13:48:31;;;;;;;0.10;0.10;;;;;;;;;;5107780;28;20026;-69
2021/10/07 13:50:57;;;;;;;4.57;0.35;;;;;;;;;;5108025;28;20035;-68
2021/10/07 13:53:23;;;;;;;0.10;0.10;;;;;;;;;;5106762;28;20015;-66
2021/10/07 13:55:49;;;;;;;0.45;0.30;;;;;;;;;;5107628;28;20494;-68
2021/10/07 13:58:15;;;;;;;0.45;0.10;;;;;;;;;;5108046;28;20510;-68
2021/10/07 14:00:42;;;;;;;0.20;0.20;;;;;;;;;;5108031;28;20102;-68
2021/10/07 14:03:08;;;;;;;0.20;0.20;;;;;;;;;;5107589;28;20022;-66
2021/10/07 14:05:35;;;;;;;0.22;0.15;;;;;;;;;;5108603;28;20032;-68
2021/10/07 14:08:02;;;;;;;0.65;0.20;;;;;;;;;;5110734;28;20030;-68
2021/10/07 14:10:28;;;;;;;0.30;0.30;;;;;;;;;;5109210;28;20119;-68
2021/10/07 14:12:55;;;;;;;0.70;0.17;;;;;;;;;;5108247;28;20031;-68
2021/10/07 14:15:22;;;;;;;1.48;0.20;;;;;;;;;;5107789;28;20098;-67
2021/10/07 14:17:48;;;;;;;0.00;0.00;;;;;;;;;;5108212;28;20475;-68
2021/10/07 14:20:14;;;;;;;0.10;0.10;;;;;;;;;;5109567;28;20284;-68
2021/10/07 14:22:40;;;;;;;3.75;0.30;;;;;;;;;;5110176;28;20050;-68
2021/10/07 14:25:06;;;;;;;1.15;0.20;;;;;;;;;;5104835;28;20304;-68
2021/10/07 14:27:32;;;;;;;0.45;0.20;;;;;;;;;;5105830;28;20027;-68
2021/10/07 14:29:58;;;;;;;0.45;0.10;;;;;;;;;;5106781;28;20566;-68
2021/10/07 14:32:25;;;;;;;0.95;0.28;;;;;;;;;;5097507;28;20043;-68
2021/10/07 14:34:51;;;;;;;0.20;0.20;;;;;;;;;;5112876;28;20076;-68
2021/10/07 14:37:17;;;;;;;0.70;0.20;;;;;;;;;;5108968;28;20466;-68
2021/10/07 14:39:43;;;;;;;0.45;0.20;;;;;;;;;;5107339;28;20099;-67
2021/10/07 14:42:09;;;;;;;0.32;0.15;;;;;;;;;;5105180;28;20020;-67
2021/10/07 14:44:35;;;;;;;1.23;0.20;;;;;;;;;;5103414;28;20131;-66
2021/10/07 14:47:01;;;;;;;0.10;0.10;;;;;;;;;;5108917;28;20033;-67
2021/10/07 14:49:27;;;;;;;0.52;0.13;;;;;;;;;;5104654;28;20417;-67
2021/10/07 14:51:53;;;;;;;0.43;0.30;;;;;;;;;;5094603;28;20030;-66